Time;durP1;ratioP1;P1;durP2;ratioP2;P2;SDS_P1;SDS_P2;PMS_P1;PMS_P2;Temp;Humidity;BMP_temperature;BMP_pressure;BME280_temperature;BME280_humidity;BME280_pressure;Samples;Min_cycle;Max_cycle;Signal;HPM_P1;HPM_P2
2023/03/03 00:01:35;;;;;;;28.25;10.57;;;4.00;99.90;;;;;;5052891;28;20297;-82
2023/03/03 00:04:05;;;;;;;14.02;10.07;;;4.00;99.90;;;;;;5053333;28;20230;-82
2023/03/03 00:06:33;;;;;;;11.48;9.70;;;4.00;99.90;;;;;;5053536;28;20206;-82
2023/03/03 00:09:02;;;;;;;13.10;10.35;;;4.00;99.90;;;;;;5052273;28;20218;-82
2023/03/03 00:11:30;;;;;;;12.65;10.07;;;4.00;99.90;;;;;;5053036;28;20206;-82
2023/03/03 00:13:59;;;;;;;16.77;11.75;;;3.90;99.90;;;;;;5072838;28;20201;-82
2023/03/03 00:16:31;;;;;;;13.73;10.55;;;3.90;99.90;;;;;;5073360;28;20205;-82
2023/03/03 00:19:00;;;;;;;12.27;10.13;;;3.90;99.90;;;;;;5072774;28;20267;-83
2023/03/03 00:21:32;;;;;;;10.93;9.77;;;3.90;99.90;;;;;;5073210;28;20197;-83
2023/03/03 00:24:19;;;;;;;18.13;11.65;;;3.80;99.90;;;;;;5072649;28;20221;-83
2023/03/03 00:26:49;;;;;;;21.02;13.93;;;3.80;99.90;;;;;;5072554;28;20204;-82
2023/03/03 00:29:29;;;;;;;30.92;15.65;;;3.80;99.90;;;;;;5072823;28;20216;-82
2023/03/03 00:32:24;;;;;;;17.15;11.98;;;3.80;99.90;;;;;;5073105;28;20204;-83
2023/03/03 00:34:55;;;;;;;13.85;11.13;;;3.80;99.90;;;;;;5073218;28;20212;-82
2023/03/03 00:37:31;;;;;;;15.57;10.90;;;3.70;99.90;;;;;;5056958;28;20289;-82
2023/03/03 00:40:13;;;;;;;13.02;10.38;;;3.70;99.90;;;;;;5053188;28;20229;-83
2023/03/03 00:42:42;;;;;;;13.27;10.35;;;3.70;99.90;;;;;;5058944;28;20193;-83
2023/03/03 00:45:24;;;;;;;14.57;11.45;;;3.70;99.90;;;;;;5073056;28;20225;-83
2023/03/03 00:47:52;;;;;;;20.92;10.52;;;3.60;99.90;;;;;;5072129;28;20211;-82
2023/03/03 00:50:31;;;;;;;11.48;10.25;;;3.70;99.90;;;;;;5072628;28;20228;-82
2023/03/03 00:53:03;;;;;;;13.93;10.25;;;3.70;99.90;;;;;;5072487;28;20212;-82
2023/03/03 00:55:33;;;;;;;10.93;9.20;;;3.60;99.90;;;;;;5072184;28;20197;-82
2023/03/03 00:58:01;;;;;;;10.98;9.85;;;3.60;99.90;;;;;;5071920;28;20253;-82
2023/03/03 01:00:29;;;;;;;14.88;9.93;;;3.50;99.90;;;;;;5072626;28;20227;-82
2023/03/03 01:03:04;;;;;;;13.30;9.98;;;3.50;99.90;;;;;;5072661;28;20209;-82
2023/03/03 01:05:32;;;;;;;17.83;10.00;;;3.50;99.90;;;;;;5068391;28;20222;-82
2023/03/03 01:08:03;;;;;;;18.58;11.30;;;3.40;99.90;;;;;;5052053;28;20205;-82
2023/03/03 01:10:35;;;;;;;12.77;10.88;;;3.40;99.90;;;;;;5052643;28;20221;-82
2023/03/03 01:13:04;;;;;;;14.10;10.57;;;3.40;99.90;;;;;;5058730;28;20201;-82
2023/03/03 01:15:33;;;;;;;15.30;10.82;;;3.40;99.90;;;;;;5072336;28;20201;-82
2023/03/03 01:18:01;;;;;;;13.50;9.38;;;3.30;99.90;;;;;;5072076;28;20259;-82
2023/03/03 01:20:29;;;;;;;11.95;10.18;;;3.30;99.90;;;;;;5071989;28;20228;-84
2023/03/03 01:22:58;;;;;;;20.30;11.52;;;3.30;99.90;;;;;;5072772;28;20209;-82
2023/03/03 01:25:27;;;;;;;12.10;10.00;;;3.30;99.90;;;;;;5071830;28;20228;-82
2023/03/03 01:27:56;;;;;;;13.07;10.23;;;3.30;99.90;;;;;;5068153;28;20201;-82
2023/03/03 01:30:25;;;;;;;23.02;11.95;;;3.30;99.90;;;;;;5052558;28;20233;-82
2023/03/03 01:32:53;;;;;;;10.05;8.43;;;3.30;99.90;;;;;;5051999;28;20249;-82
2023/03/03 01:35:22;;;;;;;11.07;8.52;;;3.30;99.90;;;;;;5059211;28;20204;-83
2023/03/03 01:37:50;;;;;;;15.38;11.75;;;3.30;99.90;;;;;;5072232;28;20231;-82
2023/03/03 01:40:21;;;;;;;11.55;9.75;;;3.30;99.90;;;;;;5072357;28;20233;-82
2023/03/03 01:42:52;;;;;;;11.75;8.90;;;3.20;99.90;;;;;;5070331;28;20211;-82
2023/03/03 01:45:23;;;;;;;11.55;9.48;;;3.20;99.90;;;;;;5071748;28;20244;-82
2023/03/03 01:47:58;;;;;;;12.88;10.43;;;3.20;99.90;;;;;;5071645;28;20201;-82
2023/03/03 01:50:45;;;;;;;11.60;9.63;;;3.10;99.90;;;;;;5071598;28;20217;-82
2023/03/03 01:53:19;;;;;;;14.60;10.25;;;3.10;99.90;;;;;;5072599;28;20205;-83
2023/03/03 01:55:50;;;;;;;11.23;9.20;;;3.10;99.90;;;;;;5071640;28;20233;-82
2023/03/03 01:58:25;;;;;;;14.30;10.15;;;3.10;99.90;;;;;;5071310;28;20211;-82
2023/03/03 02:00:58;;;;;;;11.80;10.00;;;3.10;99.90;;;;;;5072111;28;20292;-82
2023/03/03 02:03:26;;;;;;;13.18;10.15;;;3.10;99.90;;;;;;5072025;28;20207;-82
2023/03/03 02:05:59;;;;;;;11.80;9.50;;;3.10;99.90;;;;;;5071350;28;20224;-83
2023/03/03 02:08:36;;;;;;;13.77;10.40;;;3.10;99.90;;;;;;5075875;28;20205;-82
2023/03/03 02:11:05;;;;;;;11.88;10.50;;;3.10;99.90;;;;;;5095731;28;20215;-83
2023/03/03 02:13:35;;;;;;;12.25;10.15;;;3.20;99.90;;;;;;5078468;28;20197;-82
2023/03/03 02:16:04;;;;;;;16.70;11.77;;;3.20;99.90;;;;;;5075918;28;20204;-82
2023/03/03 02:18:32;;;;;;;10.48;9.27;;;3.20;99.90;;;;;;5075252;28;20197;-82
2023/03/03 02:21:06;;;;;;;10.05;8.88;;;3.30;99.90;;;;;;5056856;28;20202;-84
2023/03/03 02:23:39;;;;;;;13.07;9.77;;;3.30;99.90;;;;;;5055367;28;20209;-82
2023/03/03 02:26:11;;;;;;;17.98;9.40;;;3.30;99.90;;;;;;5056059;28;20312;-82
2023/03/03 02:28:41;;;;;;;10.18;8.85;;;3.40;99.90;;;;;;5054561;28;20202;-82
2023/03/03 02:31:13;;;;;;;13.63;9.27;;;3.40;99.90;;;;;;5055110;28;20209;-82
2023/03/03 02:33:41;;;;;;;14.18;9.50;;;3.40;99.90;;;;;;5055983;28;20297;-83
2023/03/03 02:36:13;;;;;;;18.25;9.60;;;3.50;99.90;;;;;;5074685;28;20211;-83
2023/03/03 02:38:46;;;;;;;11.75;9.02;;;3.50;99.90;;;;;;5074416;28;20312;-82
2023/03/03 02:41:23;;;;;;;10.23;8.07;;;3.50;99.90;;;;;;5074883;28;20209;-83
2023/03/03 02:43:57;;;;;;;9.23;8.32;;;3.50;99.90;;;;;;5059873;28;20281;-83
2023/03/03 02:46:26;;;;;;;12.13;8.88;;;3.60;99.90;;;;;;5054839;28;20221;-82
2023/03/03 02:48:54;;;;;;;12.05;8.43;;;3.60;99.90;;;;;;5054223;28;20228;-82
2023/03/03 02:51:22;;;;;;;9.55;8.63;;;3.60;99.90;;;;;;5054625;28;20209;-83
2023/03/03 02:53:50;;;;;;;11.57;9.32;;;3.60;99.90;;;;;;5054204;28;20276;-82
2023/03/03 02:56:20;;;;;;;11.45;9.93;;;3.50;99.90;;;;;;5054418;28;20220;-82
2023/03/03 02:58:48;;;;;;;13.48;10.38;;;3.50;99.90;;;;;;5067518;28;20256;-82
2023/03/03 03:01:17;;;;;;;13.48;8.98;;;3.50;99.90;;;;;;5075012;28;20231;-83
2023/03/03 03:03:45;;;;;;;11.32;9.70;;;3.50;99.90;;;;;;5074371;28;20204;-82
2023/03/03 03:06:14;;;;;;;14.07;9.48;;;3.50;99.90;;;;;;5074052;28;20274;-82
2023/03/03 03:08:42;;;;;;;15.15;10.18;;;3.50;99.90;;;;;;5073569;28;20240;-82
2023/03/03 03:11:11;;;;;;;14.05;9.57;;;3.50;99.90;;;;;;5074408;28;20209;-82
2023/03/03 03:13:40;;;;;;;13.40;9.10;;;3.50;99.90;;;;;;5063796;28;20194;-82
2023/03/03 03:16:08;;;;;;;10.93;8.75;;;3.50;99.90;;;;;;5054438;28;20265;-82
2023/03/03 03:18:37;;;;;;;10.77;9.32;;;3.60;99.90;;;;;;5052663;28;20194;-82
2023/03/03 03:21:10;;;;;;;17.20;9.02;;;3.60;99.90;;;;;;5053822;28;20212;-82
2023/03/03 03:23:39;;;;;;;14.65;8.80;;;3.50;99.90;;;;;;5054313;28;20212;-82
2023/03/03 03:26:08;;;;;;;11.52;9.32;;;3.50;99.90;;;;;;5053993;28;20333;-82
2023/03/03 03:28:37;;;;;;;17.08;8.57;;;3.40;99.90;;;;;;5062029;28;20207;-82
2023/03/03 03:31:08;;;;;;;10.65;9.40;;;3.40;99.90;;;;;;5074040;28;20209;-82
2023/03/03 03:33:36;;;;;;;13.20;8.90;;;3.40;99.90;;;;;;5073082;28;20201;-82
2023/03/03 03:36:06;;;;;;;17.50;9.98;;;3.30;99.90;;;;;;5073783;28;20197;-82
2023/03/03 03:38:37;;;;;;;9.15;7.50;;;3.30;99.90;;;;;;5073060;28;20201;-83
2023/03/03 03:41:07;;;;;;;9.80;7.57;;;3.30;99.90;;;;;;5072893;28;20265;-82
2023/03/03 03:43:35;;;;;;;11.00;8.25;;;3.20;99.90;;;;;;5053481;28;20208;-82
2023/03/03 03:46:04;;;;;;;11.48;9.25;;;3.20;99.90;;;;;;5053400;28;20217;-82
2023/03/03 03:48:34;;;;;;;15.85;8.95;;;3.20;99.90;;;;;;5052690;28;20198;-82
2023/03/03 03:51:02;;;;;;;14.30;9.20;;;3.20;99.90;;;;;;5053778;28;20286;-82
2023/03/03 03:53:30;;;;;;;8.77;7.88;;;3.10;99.90;;;;;;5053609;28;20208;-83
2023/03/03 03:55:59;;;;;;;10.88;8.63;;;3.10;99.90;;;;;;5053655;28;20205;-83
2023/03/03 03:58:27;;;;;;;12.82;8.63;;;3.10;99.90;;;;;;5052872;28;20205;-83
2023/03/03 04:00:55;;;;;;;11.18;8.27;;;3.00;99.90;;;;;;5053457;28;20237;-82
2023/03/03 04:03:23;;;;;;;17.58;10.73;;;3.00;99.90;;;;;;5052756;28;20210;-82
2023/03/03 04:05:55;;;;;;;13.23;9.55;;;3.00;99.90;;;;;;5053215;28;20222;-82
2023/03/03 04:08:23;;;;;;;8.77;7.93;;;2.90;99.90;;;;;;5055402;28;20216;-82
2023/03/03 04:10:52;;;;;;;8.70;7.90;;;2.90;99.90;;;;;;5093565;28;20215;-82
2023/03/03 04:13:23;;;;;;;10.35;8.10;;;2.90;99.90;;;;;;5093912;28;20299;-82
2023/03/03 04:15:51;;;;;;;13.35;9.00;;;2.80;99.90;;;;;;5093474;28;20200;-82
2023/03/03 04:18:19;;;;;;;8.88;7.80;;;2.80;99.90;;;;;;5078021;28;20204;-82
2023/03/03 04:20:48;;;;;;;11.40;8.70;;;2.80;99.90;;;;;;5073071;28;20228;-82
2023/03/03 04:23:18;;;;;;;11.38;8.77;;;2.80;99.90;;;;;;5072849;28;20300;-82
2023/03/03 04:25:47;;;;;;;11.27;9.35;;;2.80;99.90;;;;;;5072731;28;20266;-82
2023/03/03 04:28:16;;;;;;;11.93;8.90;;;2.70;99.90;;;;;;5072286;28;20201;-82
2023/03/03 04:30:44;;;;;;;9.60;8.60;;;2.70;99.90;;;;;;5072595;28;20235;-82
2023/03/03 04:33:12;;;;;;;15.38;9.55;;;2.70;99.90;;;;;;5057604;28;20255;-82
2023/03/03 04:35:41;;;;;;;10.80;8.85;;;2.70;99.90;;;;;;5053068;28;20199;-82
2023/03/03 04:38:09;;;;;;;11.13;9.40;;;2.60;99.90;;;;;;5052159;28;20206;-82
2023/03/03 04:40:40;;;;;;;13.13;9.80;;;2.60;99.90;;;;;;5052603;28;20300;-82
2023/03/03 04:43:10;;;;;;;11.95;9.60;;;2.60;99.90;;;;;;5052711;28;20236;-82
2023/03/03 04:45:38;;;;;;;12.25;10.05;;;;;;;;;;5052582;28;20212;-86
2023/03/03 04:48:07;;;;;;;24.00;10.85;;;2.50;99.90;;;;;;5068344;28;20297;-86
2023/03/03 04:50:35;;;;;;;10.32;8.93;;;2.50;99.90;;;;;;5068194;28;20221;-83
2023/03/03 04:53:04;;;;;;;12.68;9.60;;;;;;;;;;5061650;28;20210;-82
2023/03/03 04:55:33;;;;;;;9.40;8.48;;;;;;;;;;5052409;28;20208;-83
2023/03/03 04:58:03;;;;;;;16.33;10.85;;;;;;;;;;5070582;28;20206;-82
2023/03/03 05:00:32;;;;;;;13.05;9.98;;;;;;;;;;5072705;28;20220;-83
2023/03/03 05:03:01;;;;;;;16.45;11.05;;;;;;;;;;5052750;28;20240;-83
2023/03/03 05:05:30;;;;;;;13.52;9.70;;;;;;;;;;5052081;28;20302;-83
2023/03/03 05:07:58;;;;;;;11.80;9.43;;;;;;;;;;5051267;28;20231;-83
2023/03/03 05:10:27;;;;;;;11.15;8.70;;;;;;;;;;5067937;28;20231;-83
2023/03/03 05:12:56;;;;;;;11.93;9.88;;;;;;;;;;5062646;28;20201;-82
2023/03/03 05:15:26;;;;;;;11.65;10.50;;;;;;;;;;5052703;28;20293;-83
2023/03/03 05:17:55;;;;;;;16.42;12.27;;;;;;;;;;5052051;28;20193;-83
2023/03/03 05:20:23;;;;;;;21.70;11.77;;;;;;;;;;5052381;28;20234;-83
2023/03/03 05:22:53;;;;;;;12.38;10.98;;;;;;;;;;5052490;28;20213;-83
2023/03/03 05:25:23;;;;;;;16.25;12.30;;;;;;;;;;5052423;28;20206;-83
2023/03/03 05:27:51;;;;;;;15.00;12.68;;;;;;;;;;5059972;28;20223;-82
2023/03/03 05:30:20;;;;;;;21.45;15.00;;;;;;;;;;5072338;28;20235;-82
2023/03/03 05:32:50;;;;;;;19.42;13.57;;;2.50;99.90;;;;;;5058524;28;20283;-82
2023/03/03 05:35:19;;;;;;;19.38;15.30;;;2.30;99.90;;;;;;5051699;28;20305;-82
2023/03/03 05:37:48;;;;;;;23.20;16.75;;;2.20;99.90;;;;;;5051650;28;20198;-82
2023/03/03 05:40:17;;;;;;;22.13;15.90;;;2.20;99.90;;;;;;5051964;28;20308;-82
2023/03/03 05:42:45;;;;;;;27.15;19.02;;;2.20;99.90;;;;;;5053835;28;20240;-82
2023/03/03 05:45:14;;;;;;;21.75;17.85;;;2.20;99.90;;;;;;5071425;28;20201;-82
2023/03/03 05:47:42;;;;;;;23.25;16.70;;;2.20;99.90;;;;;;5079396;28;20308;-83
2023/03/03 05:50:12;;;;;;;21.87;17.00;;;2.20;99.90;;;;;;5080260;28;20217;-83
2023/03/03 05:52:40;;;;;;;22.75;16.83;;;2.20;99.90;;;;;;5084565;28;20205;-83
2023/03/03 05:55:10;;;;;;;19.60;17.10;;;2.20;99.90;;;;;;5075899;28;20212;-82
2023/03/03 05:57:39;;;;;;;21.35;17.83;;;2.20;99.90;;;;;;5059730;28;20194;-83
2023/03/03 06:00:09;;;;;;;24.33;18.75;;;2.30;99.90;;;;;;5075944;28;20236;-83
2023/03/03 06:02:37;;;;;;;26.83;18.50;;;2.40;99.90;;;;;;5075337;28;20284;-83
2023/03/03 06:05:06;;;;;;;30.23;18.67;;;2.40;99.90;;;;;;5063399;28;20259;-83
2023/03/03 06:07:36;;;;;;;35.88;19.17;;;2.40;99.90;;;;;;5055868;28;20222;-83
2023/03/03 06:10:06;;;;;;;18.60;16.63;;;2.50;99.90;;;;;;5076012;28;20213;-83
2023/03/03 06:12:35;;;;;;;43.22;20.50;;;2.50;99.90;;;;;;5065978;28;20208;-83
2023/03/03 06:15:04;;;;;;;27.48;19.25;;;2.60;99.90;;;;;;5075952;28;20293;-83
2023/03/03 06:17:32;;;;;;;21.15;18.88;;;2.60;99.90;;;;;;5058194;28;20222;-83
2023/03/03 06:20:02;;;;;;;24.60;20.15;;;2.70;99.90;;;;;;5055869;28;20225;-83
2023/03/03 06:22:30;;;;;;;24.13;18.77;;;2.80;99.90;;;;;;5056011;28;20205;-82
2023/03/03 06:25:03;;;;;;;27.83;20.73;;;2.80;99.90;;;;;;5055761;28;20202;-82
2023/03/03 06:27:31;;;;;;;25.10;20.08;;;2.90;99.90;;;;;;5055338;28;20232;-82
2023/03/03 06:29:59;;;;;;;29.90;21.23;;;3.00;99.90;;;;;;5075452;28;20235;-83
2023/03/03 06:32:28;;;;;;;27.80;20.70;;;3.10;99.90;;;;;;5070305;28;20216;-83
2023/03/03 06:34:59;;;;;;;29.65;22.75;;;3.20;99.90;;;;;;5055296;28;20202;-83
2023/03/03 06:37:28;;;;;;;25.80;20.08;;;3.30;99.90;;;;;;5061611;28;20209;-83
2023/03/03 06:39:57;;;;;;;24.95;21.75;;;3.40;99.90;;;;;;5075195;28;20225;-88
2023/03/03 06:42:27;;;;;;;28.33;22.38;;;3.40;99.90;;;;;;5074823;28;20212;-83
2023/03/03 06:44:56;;;;;;;30.90;23.67;;;3.50;99.90;;;;;;5067849;28;20276;-83
2023/03/03 06:47:24;;;;;;;31.77;25.00;;;3.50;99.90;;;;;;5072218;28;20247;-83
2023/03/03 06:49:55;;;;;;;29.73;23.33;;;3.50;99.90;;;;;;5070621;28;20232;-83
2023/03/03 06:52:26;;;;;;;39.78;24.45;;;3.50;99.90;;;;;;5071833;28;20205;-83
2023/03/03 06:54:57;;;;;;;33.88;25.25;;;3.50;99.90;;;;;;5073470;28;20211;-83
2023/03/03 06:57:29;;;;;;;25.08;21.15;;;3.50;99.90;;;;;;5064769;28;20204;-84
2023/03/03 07:00:00;;;;;;;37.58;24.90;;;3.50;99.90;;;;;;5054488;28;20261;-82
2023/03/03 07:02:28;;;;;;;32.60;25.45;;;3.50;99.90;;;;;;5068078;28;20201;-82
2023/03/03 07:04:57;;;;;;;30.33;24.10;;;3.50;99.90;;;;;;5074909;28;20248;-83
2023/03/03 07:07:26;;;;;;;31.05;23.73;;;3.60;99.90;;;;;;5074238;28;20221;-82
2023/03/03 07:09:56;;;;;;;33.10;24.58;;;3.60;99.90;;;;;;5088600;28;20231;-83
2023/03/03 07:12:30;;;;;;;27.00;22.65;;;3.60;99.90;;;;;;5094770;28;20224;-82
2023/03/03 07:15:12;;;;;;;32.42;24.48;;;3.70;99.90;;;;;;5076006;28;20224;-85
2023/03/03 07:17:44;;;;;;;31.83;24.63;;;3.80;99.90;;;;;;5070002;28;20204;-83
2023/03/03 07:20:21;;;;;;;32.35;24.45;;;3.90;99.90;;;;;;5054282;28;20217;-83
2023/03/03 07:22:50;;;;;;;35.20;22.63;;;3.90;99.90;;;;;;5054317;28;20209;-84
2023/03/03 07:25:29;;;;;;;30.60;23.50;;;4.00;99.90;;;;;;5053613;28;20220;-84
2023/03/03 07:28:07;;;;;;;47.22;24.65;;;4.00;99.90;;;;;;5053298;28;20236;-83
2023/03/03 07:30:36;;;;;;;33.03;24.92;;;4.10;99.90;;;;;;5058192;28;20229;-84
2023/03/03 07:33:11;;;;;;;33.92;24.42;;;4.20;99.90;;;;;;5072667;28;20297;-84
2023/03/03 07:35:41;;;;;;;37.53;24.08;;;4.20;99.90;;;;;;5074315;28;20208;-83
2023/03/03 07:38:19;;;;;;;24.58;20.33;;;4.20;99.90;;;;;;5073052;28;20201;-83
2023/03/03 07:40:49;;;;;;;31.42;22.52;;;4.30;99.90;;;;;;5060555;28;20267;-83
2023/03/03 07:43:30;;;;;;;26.83;22.17;;;4.30;99.90;;;;;;5064309;28;20202;-84
2023/03/03 07:46:04;;;;;;;35.20;24.30;;;4.30;99.90;;;;;;5053661;28;20207;-83
2023/03/03 07:48:37;;;;;;;34.45;23.98;;;4.30;99.90;;;;;;5065044;28;20220;-85
2023/03/03 07:51:16;;;;;;;25.23;20.95;;;4.30;99.90;;;;;;5061479;28;20197;-85
2023/03/03 07:53:46;;;;;;;30.23;22.70;;;4.30;99.90;;;;;;5073367;28;20213;-85
2023/03/03 07:56:26;;;;;;;36.38;24.17;;;4.40;99.90;;;;;;5073126;28;20205;-85
2023/03/03 07:58:57;;;;;;;26.88;21.38;;;4.50;99.90;;;;;;5073064;28;20225;-85
2023/03/03 08:01:41;;;;;;;32.42;22.58;;;4.50;99.90;;;;;;5054884;28;20240;-85
2023/03/03 08:04:18;;;;;;;27.75;21.08;;;4.60;99.90;;;;;;5052787;28;20206;-85
2023/03/03 08:06:54;;;;;;;25.35;21.05;;;4.70;99.90;;;;;;5051609;28;20248;-85
2023/03/03 08:09:48;;;;;;;25.05;21.02;;;4.90;99.90;;;;;;5052688;28;20236;-86
2023/03/03 08:12:29;;;;;;;29.92;21.05;;;5.00;99.90;;;;;;5034368;28;20206;-84
2023/03/03 08:15:23;;;;;;;29.73;21.77;;;5.20;99.90;;;;;;5053070;28;20213;-85
2023/03/03 08:17:53;;;;;;;28.60;21.33;;;5.30;99.90;;;;;;5049134;28;20202;-82
2023/03/03 08:20:44;;;;;;;24.23;20.63;;;5.40;99.90;;;;;;5052575;28;20234;-83
2023/03/03 08:23:13;;;;;;;26.35;20.67;;;5.50;99.90;;;;;;5064133;28;20203;-83
2023/03/03 08:25:43;;;;;;;30.20;20.85;;;5.60;99.90;;;;;;5078704;28;20254;-83
2023/03/03 08:28:12;;;;;;;36.65;20.70;;;5.80;99.90;;;;;;5071664;28;20233;-83
2023/03/03 08:30:44;;;;;;;24.83;19.83;;;5.90;99.90;;;;;;5072735;28;20239;-82
2023/03/03 08:33:12;;;;;;;23.63;20.25;;;6.00;99.90;;;;;;5068134;28;20208;-85
2023/03/03 08:35:42;;;;;;;25.73;20.00;;;6.10;99.90;;;;;;5052413;28;20300;-84
2023/03/03 08:38:11;;;;;;;20.98;18.70;;;6.30;99.90;;;;;;5051616;28;20197;-85
2023/03/03 08:40:40;;;;;;;31.88;19.27;;;6.40;99.90;;;;;;5052763;28;20363;-83
2023/03/03 08:43:09;;;;;;;32.00;18.30;;;6.60;99.90;;;;;;5052832;28;20209;-82
2023/03/03 08:45:37;;;;;;;25.15;21.00;;;6.70;99.90;;;;;;5053170;28;20266;-82
2023/03/03 08:48:07;;;;;;;29.45;19.95;;;6.70;99.90;;;;;;5052816;28;20241;-82
2023/03/03 08:50:35;;;;;;;20.55;17.27;;;6.80;99.90;;;;;;5051963;28;20222;-82
2023/03/03 08:53:04;;;;;;;30.50;19.92;;;6.80;99.90;;;;;;5052277;28;20205;-82
2023/03/03 08:55:32;;;;;;;24.02;17.77;;;6.90;99.90;;;;;;5051422;28;20206;-82
2023/03/03 08:58:02;;;;;;;27.20;19.20;;;7.10;99.90;;;;;;5051635;28;20380;-82
2023/03/03 09:00:30;;;;;;;28.73;18.55;;;7.40;99.90;;;;;;5051693;28;20225;-82
2023/03/03 09:02:58;;;;;;;31.35;19.33;;;7.70;99.90;;;;;;5051784;28;20288;-83
2023/03/03 09:05:29;;;;;;;21.98;18.40;;;8.00;99.90;;;;;;5051863;28;20213;-83
2023/03/03 09:07:58;;;;;;;23.17;19.17;;;8.40;99.90;;;;;;5051805;28;20214;-83
2023/03/03 09:10:28;;;;;;;22.88;18.75;;;8.80;99.90;;;;;;5052102;28;20232;-83
2023/03/03 09:13:00;;;;;;;24.85;18.85;;;9.10;99.90;;;;;;5051993;28;20208;-83
2023/03/03 09:15:30;;;;;;;21.02;17.38;;;9.50;99.90;;;;;;5052103;28;20205;-82
2023/03/03 09:18:00;;;;;;;25.08;19.95;;;9.60;99.90;;;;;;5053530;28;20210;-83
2023/03/03 09:20:34;;;;;;;19.88;16.67;;;9.80;99.90;;;;;;5056205;28;20240;-83
2023/03/03 09:23:30;;;;;;;33.92;18.95;;;9.80;99.90;;;;;;5056266;28;20219;-83
2023/03/03 09:26:03;;;;;;;21.90;16.77;;;10.00;99.90;;;;;;5055682;28;20259;-82
2023/03/03 09:28:32;;;;;;;22.27;18.15;;;10.40;99.90;;;;;;5054965;28;20233;-83
2023/03/03 09:31:02;;;;;;;20.58;18.20;;;10.50;99.70;;;;;;5055680;28;20212;-83
2023/03/03 09:33:42;;;;;;;35.10;20.52;;;10.50;99.40;;;;;;5055476;28;20232;-83
2023/03/03 09:36:21;;;;;;;33.50;19.58;;;10.20;99.60;;;;;;5056103;28;20318;-83
2023/03/03 09:38:50;;;;;;;34.03;21.00;;;10.20;99.40;;;;;;5055596;28;20260;-83
2023/03/03 09:41:43;;;;;;;21.25;18.73;;;10.20;99.00;;;;;;5056118;28;20231;-82
2023/03/03 09:44:30;;;;;;;26.05;19.23;;;10.40;99.30;;;;;;5056155;28;20198;-82
2023/03/03 09:47:20;;;;;;;29.20;20.77;;;11.10;98.70;;;;;;5055649;28;20213;-83
2023/03/03 09:49:56;;;;;;;26.98;19.40;;;11.70;98.10;;;;;;5055928;28;20234;-83
2023/03/03 09:52:38;;;;;;;20.88;17.95;;;12.20;96.70;;;;;;5055911;28;20197;-83
2023/03/03 09:55:19;;;;;;;20.45;17.27;;;12.20;96.30;;;;;;5054932;28;20225;-83
2023/03/03 09:58:04;;;;;;;20.73;18.63;;;12.80;95.90;;;;;;5055417;28;20209;-83
2023/03/03 10:00:50;;;;;;;23.55;19.83;;;13.30;95.30;;;;;;5056275;28;20232;-83
2023/03/03 10:03:45;;;;;;;20.60;18.60;;;13.40;93.70;;;;;;5056003;28;20213;-83
2023/03/03 10:06:22;;;;;;;25.00;19.67;;;13.20;93.60;;;;;;5055418;28;20217;-83
2023/03/03 10:09:09;;;;;;;21.20;18.25;;;12.80;93.10;;;;;;5054799;28;20229;-83
2023/03/03 10:11:48;;;;;;;20.05;17.85;;;12.10;94.10;;;;;;5055636;28;20197;-83
2023/03/03 10:14:34;;;;;;;25.83;19.50;;;12.00;94.50;;;;;;5055737;28;20209;-83
2023/03/03 10:17:20;;;;;;;26.23;19.83;;;11.70;94.50;;;;;;5054967;28;20210;-83
2023/03/03 10:20:00;;;;;;;19.85;17.52;;;11.50;94.50;;;;;;5055193;28;20229;-83
2023/03/03 10:22:34;;;;;;;22.50;18.15;;;11.40;94.30;;;;;;5055432;28;20216;-83
2023/03/03 10:25:17;;;;;;;22.20;18.02;;;11.40;94.40;;;;;;5055497;28;20228;-83
2023/03/03 10:28:07;;;;;;;19.05;16.55;;;11.40;93.90;;;;;;5054329;28;20205;-83
2023/03/03 10:30:46;;;;;;;18.45;16.42;;;11.30;93.30;;;;;;5054767;28;20232;-83
2023/03/03 10:33:39;;;;;;;19.00;16.65;;;11.40;93.80;;;;;;5054974;28;20228;-83
2023/03/03 10:36:50;;;;;;;27.80;15.25;;;11.80;93.80;;;;;;5054999;28;20276;-83
2023/03/03 10:39:45;;;;;;;18.13;14.55;;;12.20;92.60;;;;;;5033257;28;20277;-83
2023/03/03 10:42:36;;;;;;;19.48;15.93;;;12.90;92.30;;;;;;5033142;28;20213;-83
2023/03/03 10:45:30;;;;;;;21.17;15.60;;;13.40;91.50;;;;;;5051896;28;20243;-83
2023/03/03 10:48:13;;;;;;;19.48;16.95;;;14.20;90.80;;;;;;5054300;28;20206;-82
2023/03/03 10:50:51;;;;;;;21.63;16.92;;;14.50;88.80;;;;;;5054639;28;20229;-83
2023/03/03 10:53:27;;;;;;;19.30;17.23;;;14.60;88.00;;;;;;5054966;28;20239;-83
2023/03/03 10:56:03;;;;;;;19.00;16.73;;;;;;;;;;5053410;28;20212;-83
2023/03/03 10:58:40;;;;;;;;;;;14.80;87.20;;;;;;5054008;28;20227;-83
2023/03/03 11:01:17;;;;;;;17.58;15.52;;;16.10;83.80;;;;;;5054465;28;20313;-83
2023/03/03 11:04:12;;;;;;;23.75;16.95;;;16.40;82.90;;;;;;5054845;28;20220;-84
2023/03/03 11:06:46;;;;;;;18.13;15.93;;;16.80;80.60;;;;;;5054470;28;20216;-83
2023/03/03 11:09:28;;;;;;;18.52;15.75;;;17.00;77.40;;;;;;5054203;28;20245;-83
2023/03/03 11:12:04;;;;;;;23.40;16.80;;;17.20;77.30;;;;;;5054566;28;20224;-83
2023/03/03 11:14:40;;;;;;;25.38;18.48;;;17.40;76.20;;;;;;5054388;28;25099;-82
2023/03/03 11:17:20;;;;;;;17.77;15.98;;;17.90;72.60;;;;;;5053812;28;20230;-84
2023/03/03 11:20:05;;;;;;;23.33;17.40;;;17.60;72.60;;;;;;5054234;28;20239;-84
2023/03/03 11:22:47;;;;;;;25.05;16.75;;;17.60;72.10;;;;;;5054247;28;20216;-82
2023/03/03 11:25:19;;;;;;;;;;;17.40;72.20;;;;;;5054701;28;20220;-82
2023/03/03 11:28:18;;;;;;;20.25;16.23;;;17.30;71.50;;;;;;5053643;28;20215;-82
2023/03/03 11:31:01;;;;;;;18.77;15.57;;;17.40;69.50;;;;;;5046173;28;20135;-82
2023/03/03 11:33:34;;;;;;;;;;;17.50;71.40;;;;;;5054499;28;20121;-82
2023/03/03 11:36:12;;;;;;;19.63;16.50;;;17.90;70.30;;;;;;5053852;28;20222;-83
2023/03/03 11:38:48;;;;;;;;;;;18.00;67.00;;;;;;5053768;28;20051;-82
2023/03/03 11:41:29;;;;;;;20.25;16.55;;;18.30;68.40;;;;;;5053167;28;20221;-82
2023/03/03 11:44:05;;;;;;;18.25;14.95;;;18.00;66.40;;;;;;5053722;28;20221;-82
2023/03/03 11:46:42;;;;;;;17.25;15.23;;;17.40;67.00;;;;;;5053925;28;20220;-82
2023/03/03 11:49:16;;;;;;;;;;;17.00;67.20;;;;;;5053501;28;20048;-82
2023/03/03 11:51:48;;;;;;;;;;;16.90;67.10;;;;;;5054200;28;19971;-82
2023/03/03 11:54:21;;;;;;;;;;;17.20;66.50;;;;;;5053878;28;20097;-81
2023/03/03 11:56:49;;;;;;;21.45;15.68;;;17.60;66.10;;;;;;5052162;28;20260;-81
2023/03/03 11:59:39;;;;;;;16.52;14.85;;;17.60;64.70;;;;;;5053608;28;20248;-81
2023/03/03 12:02:25;;;;;;;19.50;14.73;;;17.50;65.90;;;;;;5053852;28;20287;-81
2023/03/03 12:04:56;;;;;;;20.45;15.73;;;17.40;64.80;;;;;;5053187;28;20228;-81
2023/03/03 12:07:32;;;;;;;17.42;14.52;;;17.00;64.50;;;;;;5053303;28;20243;-81
2023/03/03 12:10:14;;;;;;;18.60;16.23;;;16.80;65.80;;;;;;5053277;28;20236;-83
2023/03/03 12:12:43;;;;;;;;;;;16.20;67.30;;;;;;5053754;28;20053;-81
2023/03/03 12:15:23;;;;;;;26.60;16.70;;;16.50;67.60;;;;;;5053276;28;20231;-81
2023/03/03 12:18:08;;;;;;;20.60;15.50;;;16.80;67.30;;;;;;5052931;28;20044;-82
2023/03/03 12:20:46;;;;;;;19.13;16.95;;;17.10;66.00;;;;;;5053150;28;20088;-82
2023/03/03 12:23:31;;;;;;;17.00;14.35;;;16.80;65.80;;;;;;5053135;28;20225;-82
2023/03/03 12:26:06;;;;;;;19.60;15.43;;;16.80;66.20;;;;;;5052894;28;20224;-82
2023/03/03 12:28:41;;;;;;;19.10;16.63;;;16.50;66.90;;;;;;5052716;28;20223;-81
2023/03/03 12:31:22;;;;;;;16.85;15.05;;;16.30;67.00;;;;;;5052897;28;20314;-82
2023/03/03 12:33:57;;;;;;;16.45;14.63;;;16.40;66.20;;;;;;5053017;28;20231;-81
2023/03/03 12:36:37;;;;;;;;;;;16.70;67.80;;;;;;5053210;28;20059;-82
2023/03/03 12:39:09;;;;;;;;;;;16.90;65.00;;;;;;5053291;28;19931;-82
2023/03/03 12:41:45;;;;;;;17.90;15.90;;;17.30;65.80;;;;;;5052912;28;20290;-81
2023/03/03 12:44:21;;;;;;;17.80;15.75;;;16.90;62.90;;;;;;5052717;28;20221;-81
2023/03/03 12:46:57;;;;;;;;;;;17.00;64.50;;;;;;5052747;28;20057;-83
2023/03/03 12:49:37;;;;;;;15.57;13.37;;;17.20;64.10;;;;;;5052794;28;20113;-83
2023/03/03 12:52:26;;;;;;;20.52;14.35;;;17.20;63.60;;;;;;5052889;28;25057;-83
2023/03/03 12:55:11;;;;;;;18.40;14.15;;;17.00;61.90;;;;;;5051347;28;20214;-82
2023/03/03 12:57:49;;;;;;;15.30;13.70;;;16.90;63.20;;;;;;5052322;28;20155;-82
2023/03/03 13:00:28;;;;;;;19.23;14.73;;;17.00;63.10;;;;;;5052576;28;20264;-82
2023/03/03 13:02:59;;;;;;;;;;;16.90;63.20;;;;;;5053025;28;20049;-83
2023/03/03 13:05:30;;;;;;;;;;;17.40;62.80;;;;;;5052084;28;19977;-83
2023/03/03 13:08:30;;;;;;;18.25;14.38;;;17.40;62.80;;;;;;5052138;28;20169;-83
2023/03/03 13:11:07;;;;;;;16.98;13.98;;;17.10;62.90;;;;;;5052315;28;20195;-83
2023/03/03 13:13:36;;;;;;;;;;;17.10;64.00;;;;;;5053009;28;20061;-83
2023/03/03 13:16:06;;;;;;;;;;;17.30;62.70;;;;;;5053010;28;19927;-83
2023/03/03 13:18:42;;;;;;;;;;;17.50;63.60;;;;;;5052985;28;20019;-83
2023/03/03 13:21:19;;;;;;;18.90;14.93;;;17.90;63.70;;;;;;5052839;28;19965;-83